Time;durP1;ratioP1;P1;durP2;ratioP2;P2;SDS_P1;SDS_P2;PMS_P1;PMS_P2;Temp;Humidity;BMP_temperature;BMP_pressure;BME280_temperature;BME280_humidity;BME280_pressure;Samples;Min_cycle;Max_cycle;Signal;HPM_P1;HPM_P2
2021/03/13 00:02:14;;;;;;;49.67;31.30;;;;;;;5.78;82.87;94818.38;6216540;23;20421;-86
2021/03/13 00:04:40;;;;;;;54.10;30.60;;;;;;;5.79;82.35;94822.63;6216449;23;20434;-86
2021/03/13 00:07:07;;;;;;;39.83;25.77;;;;;;;5.79;82.79;94827.84;6217357;23;20409;-87
2021/03/13 00:09:33;;;;;;;45.47;25.70;;;;;;;5.79;82.77;94834.81;6221220;23;20412;-86
2021/03/13 00:11:59;;;;;;;35.13;21.93;;;;;;;5.80;82.81;94826.09;6222363;23;20483;-86
2021/03/13 00:14:26;;;;;;;34.60;21.40;;;;;;;5.83;82.94;94826.69;6221178;23;20413;-86
2021/03/13 00:16:53;;;;;;;35.80;20.40;;;;;;;5.84;82.41;94824.94;6223002;23;20563;-86
2021/03/13 00:19:20;;;;;;;38.03;19.13;;;;;;;5.82;82.30;94819.00;6222066;23;20415;-86
2021/03/13 00:21:46;;;;;;;33.93;20.10;;;;;;;5.83;83.08;94825.88;6218545;23;20713;-85
2021/03/13 00:24:12;;;;;;;35.97;18.53;;;;;;;5.79;82.73;94819.22;6218381;23;20683;-86
2021/03/13 00:26:39;;;;;;;29.50;18.47;;;;;;;5.78;82.78;94807.09;6219362;23;20393;-86
2021/03/13 00:29:06;;;;;;;26.60;17.73;;;;;;;5.81;83.04;94809.53;6219306;23;20401;-86
2021/03/13 00:31:32;;;;;;;27.13;17.23;;;;;;;5.86;83.14;94797.03;6219024;23;20441;-86
2021/03/13 00:33:59;;;;;;;24.13;16.13;;;;;;;5.82;82.10;94809.41;6218565;23;20418;-86
2021/03/13 00:36:26;;;;;;;23.67;16.53;;;;;;;5.84;82.49;94798.91;6218571;23;20394;-86
2021/03/13 00:38:52;;;;;;;29.47;17.90;;;;;;;5.84;82.11;94804.09;6218287;23;20429;-86
2021/03/13 00:41:18;;;;;;;28.43;18.70;;;;;;;5.84;82.34;94809.31;6217759;23;20496;-86
2021/03/13 00:43:45;;;;;;;32.90;18.63;;;;;;;5.86;82.16;94816.06;6219189;23;20436;-85
2021/03/13 00:46:11;;;;;;;27.10;18.13;;;;;;;5.84;82.56;94801.50;6218269;23;20456;-86
2021/03/13 00:48:38;;;;;;;26.50;17.53;;;;;;;5.57;83.88;94812.00;6218600;23;20420;-86
2021/03/13 00:51:05;;;;;;;27.77;16.40;;;;;;;5.66;83.22;94807.94;6217774;23;20398;-86
2021/03/13 00:53:32;;;;;;;26.63;17.73;;;;;;;5.69;83.51;94802.50;6217699;23;20387;-86
2021/03/13 00:55:58;;;;;;;23.00;16.30;;;;;;;5.72;83.38;94795.34;6218193;23;20394;-86
2021/03/13 00:58:24;;;;;;;24.43;15.33;;;;;;;5.75;83.38;94787.31;6218921;23;20444;-86
2021/03/13 01:00:51;;;;;;;23.60;15.10;;;;;;;5.77;83.48;94784.59;6218085;23;20398;-86
2021/03/13 01:03:17;;;;;;;20.57;14.90;;;;;;;5.79;83.79;94788.78;6218176;23;20716;-86
2021/03/13 01:05:44;;;;;;;21.27;15.10;;;;;;;5.82;84.05;94795.56;6222795;23;20465;-86
2021/03/13 01:08:11;;;;;;;30.77;15.90;;;;;;;5.83;83.25;94773.78;6219018;23;20401;-86
2021/03/13 01:10:39;;;;;;;20.80;14.90;;;;;;;5.80;84.07;94793.06;6217945;23;20804;-86
2021/03/13 01:13:07;;;;;;;19.87;14.00;;;;;;;5.80;83.43;94789.63;6217936;23;20739;-86
2021/03/13 01:15:33;;;;;;;21.80;15.47;;;;;;;5.82;84.38;94782.53;6218040;23;20390;-86
2021/03/13 01:18:01;;;;;;;21.47;13.90;;;;;;;5.85;84.11;94777.13;6217896;23;20929;-86
2021/03/13 01:20:27;;;;;;;24.20;16.57;;;;;;;5.88;83.28;94769.09;6218111;23;20401;-86
2021/03/13 01:22:54;;;;;;;36.47;19.90;;;;;;;5.53;84.56;94771.50;6217036;23;20417;-85
2021/03/13 01:25:22;;;;;;;43.90;26.40;;;;;;;5.30;85.40;94770.41;6217647;23;20441;-86
2021/03/13 01:27:48;;;;;;;38.93;25.23;;;;;;;5.38;85.46;94772.50;6217310;23;20433;-85
2021/03/13 01:30:17;;;;;;;56.33;27.10;;;;;;;5.42;85.08;94766.97;6165134;23;20402;-86
2021/03/13 01:32:44;;;;;;;57.87;33.70;;;;;;;5.20;86.22;94761.53;6217653;23;20452;-85
2021/03/13 01:35:11;;;;;;;75.80;39.30;;;;;;;5.09;86.66;94766.63;6217533;23;20394;-85
2021/03/13 01:37:38;;;;;;;84.27;39.60;;;;;;;5.02;87.25;94775.75;6218224;23;20851;-86
2021/03/13 01:40:10;;;;;;;61.13;35.27;;;;;;;5.10;86.68;94782.13;6217859;23;20402;-86
2021/03/13 01:42:38;;;;;;;60.33;32.27;;;;;;;5.13;87.02;94771.50;6219035;23;20428;-86
2021/03/13 01:45:06;;;;;;;62.90;32.53;;;;;;;5.09;86.95;94777.84;6217274;23;20449;-86
2021/03/13 01:47:32;;;;;;;65.13;35.80;;;;;;;5.01;87.24;94781.88;6218038;23;20386;-86
2021/03/13 01:49:59;;;;;;;60.03;38.73;;;;;;;5.06;88.31;94783.25;6217613;23;20394;-86
2021/03/13 01:52:25;;;;;;;63.87;36.63;;;;;;;5.05;87.03;94783.34;6217491;23;20395;-86
2021/03/13 01:54:52;;;;;;;66.97;40.17;;;;;;;5.08;87.71;94772.75;6218611;23;20410;-86
2021/03/13 01:57:19;;;;;;;75.60;39.50;;;;;;;5.02;88.14;94771.38;6218177;23;20518;-87
2021/03/13 01:59:47;;;;;;;61.43;37.37;;;;;;;5.12;88.56;94772.44;6217456;23;20414;-86
2021/03/13 02:02:15;;;;;;;76.27;39.30;;;;;;;5.20;87.79;94769.34;6218283;23;20406;-86
2021/03/13 02:04:43;;;;;;;64.20;38.90;;;;;;;5.23;87.16;94766.56;6217422;23;20442;-86
2021/03/13 02:07:17;;;;;;;73.13;38.47;;;;;;;5.27;86.64;94763.66;6217192;23;20394;-87
2021/03/13 02:09:51;;;;;;;62.30;37.03;;;;;;;5.32;86.29;94759.91;6218059;23;20409;-86
2021/03/13 02:12:29;;;;;;;69.60;37.70;;;;;;;5.32;85.74;94765.09;6217507;23;20391;-85
2021/03/13 02:15:02;;;;;;;61.80;36.60;;;;;;;5.23;86.40;94753.56;6217764;23;20519;-85
2021/03/13 02:17:36;;;;;;;55.97;34.23;;;;;;;5.15;87.10;94748.84;6218026;23;20846;-86
2021/03/13 02:20:20;;;;;;;55.93;34.83;;;;;;;5.22;86.51;94760.53;6217458;23;20409;-85
2021/03/13 02:22:50;;;;;;;58.93;34.23;;;;;;;5.25;86.70;94742.09;6217430;23;20410;-86
2021/03/13 02:25:31;;;;;;;60.50;34.17;;;;;;;5.25;86.36;94743.88;6216868;23;20438;-86
2021/03/13 02:28:05;;;;;;;59.57;36.47;;;;;;;5.26;86.09;94759.38;6217297;23;20386;-86
2021/03/13 02:30:34;;;;;;;60.37;36.03;;;;;;;5.27;86.17;94765.41;6216829;23;20397;-86
2021/03/13 02:33:04;;;;;;;59.73;35.83;;;;;;;5.27;85.73;94762.81;6216620;23;20396;-84
2021/03/13 02:35:33;;;;;;;67.13;40.13;;;;;;;5.27;86.33;94755.00;6217054;23;20391;-87
2021/03/13 02:38:03;;;;;;;73.93;39.90;;;;;;;5.32;86.67;94741.69;6224481;23;20402;-86
2021/03/13 02:40:31;;;;;;;75.27;39.80;;;;;;;5.33;86.37;94728.59;6219826;23;20402;-87
2021/03/13 02:43:00;;;;;;;72.80;39.70;;;;;;;5.35;86.59;94736.28;6217130;23;20389;-86
2021/03/13 02:45:29;;;;;;;71.57;42.10;;;;;;;5.41;86.50;94744.50;6217387;23;20476;-86
2021/03/13 02:47:57;;;;;;;70.33;39.93;;;;;;;5.45;85.85;94742.53;6216674;23;20493;-86
2021/03/13 02:50:27;;;;;;;79.23;42.53;;;;;;;5.48;85.68;94737.13;6217092;23;20449;-85
2021/03/13 02:52:56;;;;;;;80.13;41.93;;;;;;;5.46;85.39;94734.63;6217074;23;20886;-86
2021/03/13 02:55:23;;;;;;;72.17;38.63;;;;;;;5.39;85.27;94719.53;6217179;23;20713;-86
2021/03/13 02:57:54;;;;;;;65.83;38.67;;;;;;;5.37;84.95;94706.63;6217442;23;20448;-86
2021/03/13 03:00:25;;;;;;;66.27;38.07;;;;;;;5.41;85.89;94726.28;6219791;23;20406;-86
2021/03/13 03:02:54;;;;;;;72.90;40.80;;;;;;;5.37;85.77;94713.59;6217843;23;20878;-87
2021/03/13 03:05:23;;;;;;;69.77;40.17;;;;;;;5.41;85.58;94728.06;6216291;23;20444;-86
2021/03/13 03:07:52;;;;;;;82.27;39.60;;;;;;;5.37;85.05;94709.22;6188478;23;20485;-86
2021/03/13 03:10:20;;;;;;;69.60;40.00;;;;;;;5.27;85.26;94709.03;6217432;23;20421;-86
2021/03/13 03:12:48;;;;;;;72.23;38.90;;;;;;;5.24;86.26;94713.59;6216712;23;20404;-86
2021/03/13 03:15:16;;;;;;;82.13;43.70;;;;;;;5.31;86.16;94709.66;6216926;23;20394;-86
2021/03/13 03:17:43;;;;;;;82.53;46.80;;;;;;;5.20;85.48;94710.38;6216688;23;20421;-86
2021/03/13 03:20:11;;;;;;;78.40;43.40;;;;;;;4.91;86.48;94704.47;6217280;23;20872;-86
2021/03/13 03:22:40;;;;;;;87.67;43.73;;;;;;;4.91;87.06;94704.47;6217063;23;20417;-86
2021/03/13 03:25:09;;;;;;;78.57;40.90;;;;;;;4.92;86.37;94705.34;6217417;23;20491;-86
2021/03/13 03:27:49;;;;;;;66.90;38.33;;;;;;;4.85;86.11;94714.44;6217538;23;20397;-86
2021/03/13 03:30:19;;;;;;;60.57;35.80;;;;;;;4.63;87.26;94708.06;6216261;23;20409;-86
2021/03/13 03:32:45;;;;;;;56.33;34.13;;;;;;;4.70;87.60;94723.25;6218248;23;20429;-86
2021/03/13 03:35:13;;;;;;;56.90;34.80;;;;;;;4.79;87.23;94727.84;6216001;23;20413;-86
2021/03/13 03:37:40;;;;;;;57.10;34.93;;;;;;;4.83;87.33;94724.94;6214966;23;20427;-86
2021/03/13 03:40:08;;;;;;;51.67;33.57;;;;;;;4.83;86.76;94732.75;6215441;23;20409;-86
2021/03/13 03:42:42;;;;;;;52.90;34.43;;;;;;;4.87;87.00;94742.00;6216334;23;20797;-86
2021/03/13 03:45:10;;;;;;;49.40;30.90;;;;;;;4.81;86.48;94734.59;6215493;23;20815;-86
2021/03/13 03:47:39;;;;;;;59.40;33.27;;;;;;;4.76;87.71;94738.44;6215179;23;20398;-85
2021/03/13 03:50:06;;;;;;;57.83;35.87;;;;;;;4.72;87.55;94747.38;6215267;23;20412;-86
2021/03/13 03:52:34;;;;;;;74.20;41.50;;;;;;;4.57;88.54;94743.97;6215472;23;20623;-85
2021/03/13 03:55:02;;;;;;;72.83;41.30;;;;;;;4.59;88.84;94735.16;6216740;23;20410;-86
2021/03/13 03:57:31;;;;;;;77.10;44.13;;;;;;;4.56;88.93;94744.91;6216435;23;20441;-86
2021/03/13 03:59:58;;;;;;;67.57;40.70;;;;;;;4.68;89.11;94746.75;6216369;23;20390;-86
2021/03/13 04:02:28;;;;;;;55.20;35.10;;;;;;;4.74;88.01;94750.72;6216882;23;20405;-86
2021/03/13 04:04:55;;;;;;;67.10;36.30;;;;;;;4.85;88.29;94746.47;6216426;23;20533;-86
2021/03/13 04:07:23;;;;;;;58.60;35.87;;;;;;;4.93;87.34;94739.03;6216869;23;20735;-86
2021/03/13 04:09:51;;;;;;;55.87;35.87;;;;;;;5.02;87.61;94744.56;6216244;23;20413;-87
2021/03/13 04:12:20;;;;;;;65.13;36.97;;;;;;;5.10;86.49;94760.47;6216587;23;20405;-86
2021/03/13 04:14:48;;;;;;;59.30;36.80;;;;;;;5.13;86.12;94762.88;6215842;23;20777;-86
2021/03/13 04:17:15;;;;;;;69.03;38.30;;;;;;;5.19;85.50;94755.50;6216126;23;20382;-87
2021/03/13 04:19:42;;;;;;;68.93;37.93;;;;;;;5.23;85.56;94759.59;6216166;23;20404;-85
2021/03/13 04:22:09;;;;;;;70.50;38.63;;;;;;;5.27;85.57;94755.00;6216586;23;20378;-86
2021/03/13 04:24:38;;;;;;;65.57;35.63;;;;;;;5.30;85.19;94754.81;6216439;23;20446;-86
2021/03/13 04:27:06;;;;;;;61.83;38.07;;;;;;;5.34;84.87;94748.47;6216590;23;20402;-86
2021/03/13 04:29:34;;;;;;;72.90;39.00;;;;;;;5.26;84.69;94738.56;6165205;23;20406;-85
2021/03/13 04:32:02;;;;;;;66.43;39.03;;;;;;;5.21;85.38;94745.84;6216207;23;20401;-86
2021/03/13 04:34:30;;;;;;;62.77;38.17;;;;;;;5.22;86.04;94734.50;6216224;23;20393;-87
2021/03/13 04:36:57;;;;;;;55.90;37.33;;;;;;;5.25;85.21;94738.69;6216318;23;20406;-86
2021/03/13 04:39:25;;;;;;;59.33;36.60;;;;;;;5.18;85.36;94747.78;6216547;23;20468;-87
2021/03/13 04:41:52;;;;;;;73.00;38.63;;;;;;;5.19;85.41;94742.50;6216013;23;20412;-86
2021/03/13 04:44:19;;;;;;;66.53;39.50;;;;;;;5.19;86.41;94728.66;6216652;23;20401;-85
2021/03/13 04:46:48;;;;;;;65.63;39.90;;;;;;;4.98;86.10;94712.72;6216772;23;20402;-86
2021/03/13 04:49:14;;;;;;;66.93;40.30;;;;;;;5.02;85.81;94727.19;6216545;23;20432;-86
2021/03/13 04:51:41;;;;;;;63.67;38.23;;;;;;;4.95;86.68;94713.75;6216283;23;20410;-85
2021/03/13 04:54:08;;;;;;;74.67;36.40;;;;;;;4.88;87.06;94719.44;6216362;23;20473;-86
2021/03/13 04:56:34;;;;;;;65.20;36.17;;;;;;;4.89;87.17;94731.50;6218062;23;20433;-86
2021/03/13 04:59:01;;;;;;;53.37;32.50;;;;;;;4.86;87.13;94729.94;6217818;23;20497;-86
2021/03/13 05:01:27;;;;;;;57.23;32.90;;;;;;;4.78;88.31;94732.22;6218417;23;20398;-87
2021/03/13 05:03:54;;;;;;;47.97;30.80;;;;;;;4.86;88.62;94734.31;6218537;23;20406;-86
2021/03/13 05:06:21;;;;;;;47.00;25.07;;;;;;;4.73;89.03;94720.44;6218539;23;20429;-85
2021/03/13 05:08:47;;;;;;;44.80;27.57;;;;;;;4.74;89.50;94717.75;6218253;23;20480;-86
2021/03/13 05:11:14;;;;;;;42.83;27.23;;;;;;;4.68;90.08;94725.94;6165841;23;20398;-86
2021/03/13 05:13:40;;;;;;;46.47;29.00;;;;;;;4.70;90.60;94726.69;6217832;23;20459;-86
2021/03/13 05:16:06;;;;;;;36.33;25.07;;;;;;;4.64;90.48;94719.28;6217840;23;20405;-86
2021/03/13 05:18:33;;;;;;;49.20;31.27;;;;;;;4.60;90.86;94734.22;6218236;23;20402;-86
2021/03/13 05:21:00;;;;;;;47.00;30.60;;;;;;;4.67;91.30;94739.88;6217582;23;20390;-85
2021/03/13 05:23:27;;;;;;;39.97;26.50;;;;;;;4.77;90.92;94730.53;6218293;23;20392;-86
2021/03/13 05:25:53;;;;;;;42.00;25.50;;;;;;;4.73;91.33;94739.47;6217906;23;20441;-87
2021/03/13 05:28:19;;;;;;;47.10;31.67;;;;;;;4.89;91.28;94734.94;6218213;23;20394;-86
2021/03/13 05:30:46;;;;;;;72.90;41.00;;;;;;;4.78;90.94;94736.56;6217957;23;20724;-86
2021/03/13 05:33:12;;;;;;;69.33;42.70;;;;;;;5.02;90.79;94754.94;6218311;23;20742;-86
2021/03/13 05:35:39;;;;;;;76.23;43.07;;;;;;;5.34;88.37;94747.63;6217827;23;20444;-86
2021/03/13 05:38:07;;;;;;;72.27;42.40;;;;;;;5.98;88.01;94770.16;6218673;23;20414;-86
2021/03/13 05:40:33;;;;;;;70.90;43.10;;;;;;;6.68;83.62;94760.00;6217762;23;20584;-86
2021/03/13 05:43:00;;;;;;;70.57;39.30;;;;;;;6.84;81.27;94762.34;6217919;23;20890;-86
2021/03/13 05:45:27;;;;;;;72.53;43.70;;;;;;;6.78;80.58;94747.97;6217867;23;20438;-85
2021/03/13 05:47:55;;;;;;;79.77;43.07;;;;;;;7.04;81.51;94771.34;6218116;23;20394;-86
2021/03/13 05:50:22;;;;;;;64.97;38.00;;;;;;;7.56;80.04;94760.50;6218397;23;20389;-86
2021/03/13 05:52:54;;;;;;;48.83;33.67;;;;;;;8.13;77.41;94769.25;6219307;23;20761;-88
2021/03/13 05:55:22;;;;;;;51.97;32.90;;;;;;;8.51;75.33;94772.34;6191398;23;20421;-86
2021/03/13 05:57:52;;;;;;;46.03;30.00;;;;;;;8.96;72.11;94774.84;6218493;23;20442;-86
2021/03/13 06:00:19;;;;;;;53.50;31.23;;;;;;;9.36;70.80;94779.50;6219310;23;20417;-88
2021/03/13 06:02:46;;;;;;;45.37;31.80;;;;;;;9.49;71.21;94777.53;6218012;23;20412;-89
2021/03/13 06:05:13;;;;;;;50.40;32.67;;;;;;;9.58;70.42;94768.94;6219171;23;21031;-91
2021/03/13 06:07:42;;;;;;;47.90;31.57;;;;;;;9.54;68.51;94778.84;6218453;23;20435;-91
2021/03/13 06:10:09;;;;;;;47.60;31.60;;;;;;;9.46;68.63;94793.50;6219388;23;20425;-90
2021/03/13 06:12:37;;;;;;;50.80;32.10;;;;;;;9.44;68.62;94788.38;6219175;23;20385;-90
2021/03/13 06:15:04;;;;;;;57.70;33.57;;;;;;;9.49;69.46;94790.63;6219386;23;20456;-90
2021/03/13 06:17:57;;;;;;;52.10;35.30;;;;;;;9.50;69.36;94779.19;6220220;23;20408;-91
2021/03/13 06:20:33;;;;;;;51.10;36.00;;;;;;;9.35;68.16;94775.22;6218748;23;20405;-82
2021/03/13 06:23:02;;;;;;;59.30;38.30;;;;;;;9.25;69.63;94783.84;6219809;23;20485;-90
2021/03/13 06:25:30;;;;;;;66.37;41.13;;;;;;;9.68;68.57;94792.56;6220183;23;20444;-92
2021/03/13 06:28:10;;;;;;;56.63;34.67;;;;;;;10.00;67.71;94795.13;6220926;23;20408;-91
2021/03/13 06:30:38;;;;;;;47.90;33.70;;;;;;;10.12;65.28;94788.81;6192903;23;20406;-90
2021/03/13 06:33:24;;;;;;;53.80;32.53;;;;;;;10.49;65.24;94790.03;6220158;23;20411;-92
2021/03/13 06:35:52;;;;;;;58.30;34.43;;;;;;;11.05;63.82;94807.06;6219563;23;20414;-91
2021/03/13 06:38:21;;;;;;;55.47;34.43;;;;;;;11.06;62.16;94801.66;6220251;23;20709;-91
2021/03/13 06:40:48;;;;;;;50.27;33.93;;;;;;;11.44;62.44;94800.06;6220417;23;20414;-91
2021/03/13 06:43:26;;;;;;;56.57;35.40;;;;;;;11.65;59.64;94808.63;6219402;23;20499;-89
2021/03/13 06:46:05;;;;;;;49.67;33.27;;;;;;;11.79;60.54;94812.66;6220040;23;20447;-90
2021/03/13 06:48:36;;;;;;;56.30;35.93;;;;;;;12.12;59.41;94808.75;6220456;23;20416;-91
2021/03/13 06:51:25;;;;;;;56.83;34.50;;;;;;;12.64;57.51;94817.06;6220366;23;20413;-90
2021/03/13 06:54:06;;;;;;;56.33;35.03;;;;;;;12.88;56.57;94811.28;6220265;23;20456;-89
2021/03/13 06:56:37;;;;;;;55.50;35.37;;;;;;;13.07;56.58;94823.53;6219372;23;20443;-90
2021/03/13 06:59:18;;;;;;;51.80;34.53;;;;;;;12.91;55.01;94817.09;6220493;23;20439;-89
2021/03/13 07:01:45;;;;;;;48.10;31.63;;;;;;;12.49;54.04;94813.25;6223671;23;20407;-88
2021/03/13 07:04:12;;;;;;;48.07;30.57;;;;;;;12.15;55.52;94797.97;6224135;23;20444;-87
2021/03/13 07:06:45;;;;;;;50.13;32.53;;;;;;;11.98;57.41;94806.56;6223911;23;20442;-87
2021/03/13 07:09:12;;;;;;;58.50;34.13;;;;;;;11.96;57.19;94808.50;6223852;23;20714;-88
2021/03/13 07:11:38;;;;;;;50.67;34.47;;;;;;;12.00;58.49;94805.44;6224380;23;20479;-84
2021/03/13 07:14:06;;;;;;;50.47;34.10;;;;;;;11.94;59.38;94810.44;6223549;23;20966;-91
2021/03/13 07:16:34;;;;;;;65.67;36.50;;;;;;;12.28;60.72;94801.09;6223931;23;20418;-82
2021/03/13 07:19:03;;;;;;;48.93;33.17;;;;;;;12.71;61.29;94826.03;6194103;23;20430;-85
2021/03/13 07:21:30;;;;;;;50.07;33.70;;;;;;;12.88;56.59;94822.63;6223052;23;20391;-84
2021/03/13 07:23:59;;;;;;;61.90;35.67;;;;;;;13.17;55.34;94825.16;6220249;23;20689;-83
2021/03/13 07:26:28;;;;;;;66.07;34.43;;;;;;;13.44;54.76;94824.31;6220949;23;20740;-86
2021/03/13 07:28:59;;;;;;;41.90;28.70;;;;;;;13.64;53.38;94825.84;6222590;23;20413;-87
2021/03/13 07:31:29;;;;;;;46.03;30.70;;;;;;;13.93;52.39;94824.78;6222990;23;20451;-89
2021/03/13 07:33:59;;;;;;;46.10;32.17;;;;;;;13.95;51.84;94817.53;6222740;23;20495;-88
2021/03/13 07:36:27;;;;;;;64.47;34.83;;;;;;;13.70;52.08;94818.28;6224362;23;20419;-90
2021/03/13 07:39:00;;;;;;;47.90;30.57;;;;;;;13.37;52.94;94820.63;6222272;23;20413;-88
2021/03/13 07:41:26;;;;;;;53.30;33.17;;;;;;;13.31;53.86;94808.88;6221668;23;20410;-86
2021/03/13 07:43:54;;;;;;;70.60;34.80;;;;;;;13.27;54.66;94812.75;6221169;23;20435;-87
2021/03/13 07:46:24;;;;;;;70.67;33.20;;;;;;;13.24;55.13;94794.59;6223807;23;20546;-87
2021/03/13 07:48:53;;;;;;;52.30;30.20;;;;;;;13.13;55.09;94796.59;6223046;23;20411;-88
2021/03/13 07:51:20;;;;;;;55.23;30.27;;;;;;;13.03;54.73;94810.66;6222203;23;20422;-88
2021/03/13 07:53:47;;;;;;;48.53;29.87;;;;;;;12.79;55.14;94797.19;6222135;23;20421;-86
2021/03/13 07:56:15;;;;;;;45.63;26.57;;;;;;;12.65;56.41;94816.91;6221541;23;20511;-89
2021/03/13 07:58:43;;;;;;;56.10;32.00;;;;;;;12.40;56.21;94807.03;6223217;23;20418;-89
2021/03/13 08:01:12;;;;;;;50.20;29.90;;;;;;;12.28;56.82;94808.16;6223606;23;20472;-89
2021/03/13 08:03:49;;;;;;;55.17;28.70;;;;;;;12.18;57.47;94813.47;6223364;23;20415;-88
2021/03/13 08:06:18;;;;;;;47.13;26.90;;;;;;;12.15;57.12;94800.59;6224244;23;20472;-88
2021/03/13 08:08:46;;;;;;;47.33;31.70;;;;;;;12.00;57.26;94815.16;6222866;23;20412;-88
2021/03/13 08:11:13;;;;;;;43.70;27.20;;;;;;;11.84;58.30;94804.34;6223885;23;20417;-87
2021/03/13 08:14:00;;;;;;;50.93;30.57;;;;;;;11.66;58.54;94797.16;6222308;23;20415;-90
2021/03/13 08:16:45;;;;;;;48.23;29.23;;;;;;;11.65;58.70;94799.94;6222592;23;20417;-90
2021/03/13 08:19:43;;;;;;;42.97;26.43;;;;;;;11.62;58.34;94816.81;6223174;23;20425;-89
2021/03/13 08:22:19;;;;;;;39.00;27.40;;;;;;;11.63;59.52;94815.00;6229913;23;20378;-90
2021/03/13 08:24:50;;;;;;;47.43;28.63;;;;;;;11.26;58.09;94817.44;6227648;23;20828;-89
2021/03/13 08:27:19;;;;;;;43.38;28.92;;;;;;;11.33;58.78;94818.59;6225073;23;20488;-90
2021/03/13 08:29:57;;;;;;;36.90;25.30;;;;;;;11.16;58.36;94805.13;6223585;23;20548;-88
2021/03/13 08:33:03;;;;;;;47.63;29.73;;;;;;;11.12;59.31;94813.41;6224846;23;20410;-89
2021/03/13 08:35:44;;;;;;;43.90;26.57;;;;;;;11.05;60.21;94814.94;6224442;23;20421;-86
2021/03/13 08:38:32;;;;;;;45.43;25.40;;;;;;;10.95;60.47;94828.00;6225543;23;20405;-87
2021/03/13 08:40:59;;;;;;;44.77;29.20;;;;;;;11.02;61.03;94817.84;6163623;23;20495;-87
2021/03/13 08:43:40;;;;;;;46.20;27.23;;;;;;;10.96;60.94;94824.41;6161577;23;20439;-87
2021/03/13 08:46:45;;;;;;;28.03;19.90;;;;;;;10.99;59.16;94824.19;6164569;23;20439;-88
2021/03/13 08:49:13;;;;;;;29.90;16.80;;;;;;;10.68;59.75;94827.78;6045529;23;20462;-90
2021/03/13 08:51:39;;;;;;;33.90;22.50;;;;;;;10.77;60.47;94834.88;6046866;23;20417;-86
2021/03/13 08:54:09;;;;;;;26.60;18.53;;;;;;;10.76;60.00;94838.47;6050283;23;20438;-87
2021/03/13 08:56:38;;;;;;;29.57;19.83;;;;;;;10.70;58.95;94831.13;6048352;23;20447;-88
2021/03/13 08:59:14;;;;;;;24.57;17.90;;;;;;;10.72;58.99;94837.06;6051059;23;20476;-88
2021/03/13 09:01:41;;;;;;;20.27;14.20;;;;;;;10.58;58.11;94840.03;6049163;23;20524;-88
2021/03/13 09:04:13;;;;;;;25.57;16.10;;;;;;;10.34;58.72;94838.53;6003826;23;20418;-86
2021/03/13 09:06:41;;;;;;;29.43;17.67;;;;;;;10.10;60.91;94848.44;6051218;23;20457;-85
2021/03/13 09:09:10;;;;;;;24.77;15.13;;;;;;;10.17;60.78;94836.50;6045411;23;20415;-89
2021/03/13 09:11:39;;;;;;;28.13;17.67;;;;;;;10.36;60.74;94844.47;6069122;23;20866;-94
2021/03/13 09:14:06;;;;;;;30.03;17.13;;;;;;;10.54;60.54;94845.56;6101330;23;20480;-86
2021/03/13 09:16:38;;;;;;;30.57;20.27;;;;;;;10.51;59.97;94835.31;6103996;23;20436;-89
2021/03/13 09:19:17;;;;;;;43.03;20.70;;;;;;;10.47;61.02;94838.34;6112410;23;20426;-90
2021/03/13 09:21:46;;;;;;;38.40;20.50;;;;;;;10.68;61.70;94838.28;6107905;23;20409;-88
2021/03/13 09:24:15;;;;;;;35.13;24.53;;;;;;;10.73;62.04;94830.88;6221413;23;20494;-88
2021/03/13 09:26:42;;;;;;;35.60;24.43;;;;;;;10.86;61.15;94836.69;6230939;23;20444;-89
2021/03/13 09:29:09;;;;;;;45.23;22.07;;;;;;;10.92;61.49;94858.97;6164879;23;20498;-88
2021/03/13 09:31:36;;;;;;;33.73;21.27;;;;;;;11.02;60.33;94852.78;6163942;23;20794;-88
2021/03/13 09:34:20;;;;;;;28.23;19.00;;;;;;;10.89;58.70;94836.44;6162072;23;20472;-83
2021/03/13 09:36:56;;;;;;;39.73;22.90;;;;;;;11.02;59.70;94855.41;6167306;23;20495;-90
2021/03/13 09:39:28;;;;;;;45.80;21.30;;;;;;;11.07;59.73;94841.88;6171826;23;20417;-88
2021/03/13 09:42:16;;;;;;;46.93;26.20;;;;;;;11.05;58.80;94857.78;6172989;23;20440;-82
2021/03/13 09:44:46;;;;;;;49.17;23.00;;;;;;;11.06;59.38;94866.47;6055493;23;20430;-90
2021/03/13 09:47:20;;;;;;;92.73;26.37;;;;;;;11.01;61.11;94869.50;6051458;23;20431;-85
2021/03/13 09:49:50;;;;;;;37.00;20.63;;;;;;;10.95;60.96;94872.66;6048302;23;20415;-88
2021/03/13 09:52:23;;;;;;;42.37;25.80;;;;;;;10.80;62.73;94861.69;6046840;23;20470;-86
2021/03/13 09:57:26;;;;;;;40.00;24.83;;;;;;;10.83;63.80;94845.69;6223061;23;20513;-87
2021/03/13 09:59:53;;;;;;;44.03;26.40;;;;;;;10.87;64.90;94846.22;6221414;23;20403;-89
2021/03/13 10:02:22;;;;;;;49.10;26.70;;;;;;;10.84;63.85;94836.00;6217804;22;20457;-85
2021/03/13 10:04:50;;;;;;;41.50;27.80;;;;;;;10.73;65.37;94823.00;6222121;23;20402;-86
2021/03/13 10:07:17;;;;;;;41.27;25.60;;;;;;;10.83;64.56;94834.34;6221149;23;20469;-85
2021/03/13 10:09:54;;;;;;;38.97;25.33;;;;;;;10.95;63.18;94841.16;6221150;23;20485;-87
2021/03/13 10:12:26;;;;;;;46.67;26.70;;;;;;;11.04;63.41;94840.34;6222182;23;20452;-87
2021/03/13 10:14:52;;;;;;;43.43;22.60;;;;;;;11.11;61.64;94849.34;6222287;23;20406;-89
2021/03/13 10:17:18;;;;;;;42.23;24.17;;;;;;;11.28;62.46;94845.25;6220883;23;20537;-86
2021/03/13 10:19:45;;;;;;;41.47;26.73;;;;;;;11.29;61.21;94840.84;6221438;23;20413;-87
2021/03/13 10:22:15;;;;;;;40.30;24.50;;;;;;;11.45;62.01;94847.22;6222540;23;20395;-88
2021/03/13 10:24:46;;;;;;;35.87;23.43;;;;;;;11.71;61.63;94855.41;6221929;23;20777;-88
2021/03/13 10:27:19;;;;;;;40.83;22.13;;;;;;;12.07;61.33;94850.44;6221964;23;20398;-89
2021/03/13 10:29:54;;;;;;;34.27;23.67;;;;;;;12.13;58.65;94847.22;6221652;23;20401;-86
2021/03/13 10:32:30;;;;;;;35.10;23.97;;;;;;;12.36;59.44;94826.69;6219553;23;20464;-89
2021/03/13 10:35:10;;;;;;;43.90;25.17;;;;;;;12.27;58.31;94823.13;6224162;23;20413;-88
2021/03/13 10:37:38;;;;;;;37.63;25.03;;;;;;;12.51;59.20;94835.00;6223876;23;20433;-88
2021/03/13 10:40:06;;;;;;;42.93;26.47;;;;;;;12.50;58.70;94831.53;6223680;23;20403;-83
2021/03/13 10:42:35;;;;;;;52.37;26.43;;;;;;;12.53;60.83;94835.66;6221196;23;20415;-90
2021/03/13 10:45:15;;;;;;;34.20;26.30;;;;;;;12.60;61.96;94829.69;6222074;23;20415;-88
2021/03/13 10:47:41;;;;;;;38.37;24.90;;;;;;;12.69;61.02;94839.34;6221885;23;20428;-87
2021/03/13 10:50:09;;;;;;;37.77;23.97;;;;;;;12.67;60.98;94832.56;6221870;22;20460;-88
2021/03/13 10:52:37;;;;;;;45.47;23.53;;;;;;;12.82;61.32;94836.41;6224012;23;20949;-88
2021/03/13 10:55:05;;;;;;;53.27;24.93;;;;;;;12.89;61.35;94837.47;6221493;23;20395;-90
2021/03/13 10:57:32;;;;;;;39.97;25.80;;;;;;;12.95;60.82;94825.50;6221395;23;20398;-87
2021/03/13 10:59:58;;;;;;;50.63;26.03;;;;;;;13.07;61.15;94839.34;6222881;23;20478;-84
2021/03/13 11:02:25;;;;;;;37.37;25.90;;;;;;;13.06;59.86;94829.78;6222888;23;20400;-88
2021/03/13 11:04:52;;;;;;;34.70;23.73;;;;;;;12.84;59.38;94823.09;6219480;23;20395;-84
2021/03/13 11:07:39;;;;;;;40.17;26.40;;;;;;;12.87;60.08;94828.06;6224891;23;20500;-87
2021/03/13 11:10:10;;;;;;;42.67;26.63;;;;;;;12.92;59.96;94831.91;6166136;23;20389;-88
2021/03/13 11:12:36;;;;;;;42.20;27.87;;;;;;;12.94;58.69;94822.06;6158188;23;20417;-84
2021/03/13 11:15:23;;;;;;;36.13;25.03;;;;;;;12.94;57.93;94829.13;6116703;23;20765;-88
2021/03/13 11:17:50;;;;;;;35.63;26.27;;;;;;;12.91;58.65;94824.97;6104536;23;20486;-91
2021/03/13 11:20:17;;;;;;;41.63;25.00;;;;;;;12.83;59.25;94811.72;6103323;23;20409;-91
2021/03/13 11:22:44;;;;;;;36.20;24.77;;;;;;;12.76;59.66;94813.28;6102172;23;20416;-91
2021/03/13 11:25:11;;;;;;;33.37;23.40;;;;;;;12.65;62.26;94826.63;6100416;23;20420;-90
2021/03/13 11:27:58;;;;;;;49.47;25.03;;;;;;;12.70;61.06;94827.84;6105263;23;20417;-89
2021/03/13 11:30:25;;;;;;;38.37;26.97;;;;;;;12.78;60.88;94819.22;6017349;23;20426;-91
2021/03/13 11:32:52;;;;;;;38.13;24.30;;;;;;;12.80;60.72;94817.28;6017021;23;20486;-90
2021/03/13 11:35:20;;;;;;;36.87;26.07;;;;;;;12.60;60.84;94818.31;6017202;23;20506;-89
2021/03/13 11:37:48;;;;;;;35.53;23.50;;;;;;;12.62;61.26;94805.84;6018881;23;20433;-90